CheckWX is a tool to help pilots better visualize weather data.  It is not intended as a substitute for an official pre-flight weather briefing.

19:46:51 UTC

KEMT METAR
San Gabriel Valley Airport
El Monte, California, USA
Current

51 mins ago

KEMT 161856Z 00000KT 10SM CLR 18/06 A3013
Observed
Feb-16 @ 18:56 UTC
Visibility
10 SM
Flight Rules
VFR
Cloud Levels
  • Clear skies
Temperature
18°C / 64°F
Dewpoint
C / 43°F
Humidity
46%
Altimeter
30.13" Hg
Pressure
1020.32 hPa
Previous

2 hours ago

KEMT 161745Z 00000KT 10SM CLR 16/05 A3016
Observed
Feb-16 @ 17:45 UTC
Visibility
10 SM
Flight Rules
VFR
Cloud Levels
  • Clear skies
Temperature
16°C / 61°F
Dewpoint
C / 41°F
Humidity
48%
Altimeter
30.16" Hg
Pressure
1021.32 hPa
Previous

3 hours ago

KEMT 161645Z 00000KT 9SM CLR 12/07 A3016
Observed
Feb-16 @ 16:45 UTC
Visibility
9 SM
Flight Rules
VFR
Cloud Levels
  • Clear skies
Temperature
12°C / 54°F
Dewpoint
C / 45°F
Humidity
72%
Altimeter
30.16" Hg
Pressure
1021.32 hPa